sensor_id;sensor_type;location;lat;lon;timestamp;P1;durP1;ratioP1;P2;durP2;ratioP2
71423;SDS011;59240;51.370;-0.486;2023-08-07T00:02:10;4.03;;;1.08;;
71423;SDS011;59240;51.370;-0.486;2023-08-07T00:07:06;3.28;;;1.02;;
71423;SDS011;59240;51.370;-0.486;2023-08-07T00:12:03;2.00;;;1.05;;
71423;SDS011;59240;51.370;-0.486;2023-08-07T00:17:00;1.90;;;1.08;;
71423;SDS011;59240;51.370;-0.486;2023-08-07T00:21:57;1.75;;;0.70;;
71423;SDS011;59240;51.370;-0.486;2023-08-07T00:26:54;1.23;;;0.80;;
71423;SDS011;59240;51.370;-0.486;2023-08-07T00:31:51;2.45;;;0.70;;
71423;SDS011;59240;51.370;-0.486;2023-08-07T00:36:48;1.85;;;1.05;;
71423;SDS011;59240;51.370;-0.486;2023-08-07T00:41:45;1.52;;;0.90;;
71423;SDS011;59240;51.370;-0.486;2023-08-07T00:46:42;2.25;;;0.77;;
71423;SDS011;59240;51.370;-0.486;2023-08-07T00:51:39;1.15;;;0.70;;
71423;SDS011;59240;51.370;-0.486;2023-08-07T00:56:36;3.75;;;0.93;;
71423;SDS011;59240;51.370;-0.486;2023-08-07T01:01:33;1.30;;;0.90;;
71423;SDS011;59240;51.370;-0.486;2023-08-07T01:06:30;1.88;;;0.90;;
71423;SDS011;59240;51.370;-0.486;2023-08-07T01:22:09;3.28;;;0.98;;
71423;SDS011;59240;51.370;-0.486;2023-08-07T01:27:15;2.60;;;1.00;;
71423;SDS011;59240;51.370;-0.486;2023-08-07T01:32:16;1.35;;;0.88;;
71423;SDS011;59240;51.370;-0.486;2023-08-07T01:37:21;4.00;;;1.00;;
71423;SDS011;59240;51.370;-0.486;2023-08-07T01:42:20;1.15;;;0.95;;
71423;SDS011;59240;51.370;-0.486;2023-08-07T01:47:18;3.10;;;1.02;;
71423;SDS011;59240;51.370;-0.486;2023-08-07T01:52:15;2.50;;;1.00;;
71423;SDS011;59240;51.370;-0.486;2023-08-07T01:57:12;2.05;;;1.00;;
71423;SDS011;59240;51.370;-0.486;2023-08-07T02:02:08;3.80;;;1.05;;
71423;SDS011;59240;51.370;-0.486;2023-08-07T02:07:05;2.13;;;1.10;;
71423;SDS011;59240;51.370;-0.486;2023-08-07T02:12:02;2.28;;;1.13;;
71423;SDS011;59240;51.370;-0.486;2023-08-07T02:16:59;2.95;;;1.48;;
71423;SDS011;59240;51.370;-0.486;2023-08-07T02:21:56;2.05;;;1.10;;
71423;SDS011;59240;51.370;-0.486;2023-08-07T02:26:53;1.33;;;0.95;;
71423;SDS011;59240;51.370;-0.486;2023-08-07T02:31:50;2.38;;;0.90;;
71423;SDS011;59240;51.370;-0.486;2023-08-07T02:36:47;2.72;;;0.90;;
71423;SDS011;59240;51.370;-0.486;2023-08-07T02:41:44;4.25;;;1.15;;
71423;SDS011;59240;51.370;-0.486;2023-08-07T02:46:40;1.25;;;0.80;;
71423;SDS011;59240;51.370;-0.486;2023-08-07T02:51:37;1.13;;;0.77;;
71423;SDS011;59240;51.370;-0.486;2023-08-07T02:56:34;2.67;;;1.27;;
71423;SDS011;59240;51.370;-0.486;2023-08-07T03:01:31;2.22;;;1.10;;
71423;SDS011;59240;51.370;-0.486;2023-08-07T03:06:28;1.50;;;0.80;;
71423;SDS011;59240;51.370;-0.486;2023-08-07T03:11:25;1.95;;;0.93;;
71423;SDS011;59240;51.370;-0.486;2023-08-07T03:16:22;1.88;;;0.93;;
71423;SDS011;59240;51.370;-0.486;2023-08-07T03:21:19;1.85;;;1.00;;
71423;SDS011;59240;51.370;-0.486;2023-08-07T03:26:15;1.60;;;1.02;;
71423;SDS011;59240;51.370;-0.486;2023-08-07T03:31:15;3.40;;;1.50;;
71423;SDS011;59240;51.370;-0.486;2023-08-07T03:36:12;3.40;;;1.10;;
71423;SDS011;59240;51.370;-0.486;2023-08-07T03:41:08;2.97;;;1.42;;
71423;SDS011;59240;51.370;-0.486;2023-08-07T03:46:05;2.47;;;0.93;;
71423;SDS011;59240;51.370;-0.486;2023-08-07T03:51:06;3.70;;;1.23;;
71423;SDS011;59240;51.370;-0.486;2023-08-07T03:56:07;3.30;;;1.13;;
71423;SDS011;59240;51.370;-0.486;2023-08-07T04:01:04;4.60;;;1.25;;
71423;SDS011;59240;51.370;-0.486;2023-08-07T04:06:00;1.73;;;1.08;;
71423;SDS011;59240;51.370;-0.486;2023-08-07T04:11:04;4.43;;;1.10;;
71423;SDS011;59240;51.370;-0.486;2023-08-07T04:16:02;2.92;;;1.02;;
71423;SDS011;59240;51.370;-0.486;2023-08-07T04:21:01;2.08;;;1.13;;
71423;SDS011;59240;51.370;-0.486;2023-08-07T04:25:58;3.33;;;1.15;;
71423;SDS011;59240;51.370;-0.486;2023-08-07T04:30:56;3.17;;;1.45;;
71423;SDS011;59240;51.370;-0.486;2023-08-07T04:35:52;1.65;;;0.90;;
71423;SDS011;59240;51.370;-0.486;2023-08-07T04:40:49;1.83;;;1.00;;
71423;SDS011;59240;51.370;-0.486;2023-08-07T04:45:46;2.25;;;0.98;;
71423;SDS011;59240;51.370;-0.486;2023-08-07T04:50:44;3.50;;;1.50;;
71423;SDS011;59240;51.370;-0.486;2023-08-07T04:55:41;2.47;;;1.40;;
71423;SDS011;59240;51.370;-0.486;2023-08-07T05:00:37;5.55;;;1.30;;
71423;SDS011;59240;51.370;-0.486;2023-08-07T05:05:34;2.63;;;1.30;;
71423;SDS011;59240;51.370;-0.486;2023-08-07T05:10:31;3.60;;;1.20;;
71423;SDS011;59240;51.370;-0.486;2023-08-07T05:15:28;3.33;;;1.48;;
71423;SDS011;59240;51.370;-0.486;2023-08-07T05:20:27;2.90;;;1.65;;
71423;SDS011;59240;51.370;-0.486;2023-08-07T05:25:23;2.97;;;1.55;;
71423;SDS011;59240;51.370;-0.486;2023-08-07T05:30:20;3.17;;;1.17;;
71423;SDS011;59240;51.370;-0.486;2023-08-07T05:35:17;6.35;;;1.70;;
71423;SDS011;59240;51.370;-0.486;2023-08-07T05:40:14;2.53;;;1.77;;
71423;SDS011;59240;51.370;-0.486;2023-08-07T05:45:11;3.60;;;1.77;;
71423;SDS011;59240;51.370;-0.486;2023-08-07T05:50:07;4.82;;;1.70;;
71423;SDS011;59240;51.370;-0.486;2023-08-07T05:55:05;2.80;;;2.10;;
71423;SDS011;59240;51.370;-0.486;2023-08-07T06:00:03;2.92;;;1.55;;
71423;SDS011;59240;51.370;-0.486;2023-08-07T06:05:00;4.28;;;1.40;;
71423;SDS011;59240;51.370;-0.486;2023-08-07T06:09:57;2.47;;;1.27;;
71423;SDS011;59240;51.370;-0.486;2023-08-07T06:14:54;2.75;;;1.45;;
71423;SDS011;59240;51.370;-0.486;2023-08-07T06:19:52;3.92;;;1.70;;
71423;SDS011;59240;51.370;-0.486;2023-08-07T06:24:48;4.20;;;1.40;;
71423;SDS011;59240;51.370;-0.486;2023-08-07T06:29:45;4.82;;;1.20;;
71423;SDS011;59240;51.370;-0.486;2023-08-07T06:34:42;4.35;;;1.30;;
71423;SDS011;59240;51.370;-0.486;2023-08-07T06:39:39;1.85;;;1.38;;
71423;SDS011;59240;51.370;-0.486;2023-08-07T06:44:36;1.23;;;1.02;;
71423;SDS011;59240;51.370;-0.486;2023-08-07T06:49:32;1.73;;;1.30;;
71423;SDS011;59240;51.370;-0.486;2023-08-07T06:54:29;3.17;;;1.00;;
71423;SDS011;59240;51.370;-0.486;2023-08-07T06:59:26;1.80;;;0.85;;
71423;SDS011;59240;51.370;-0.486;2023-08-07T07:04:23;3.10;;;1.38;;
71423;SDS011;59240;51.370;-0.486;2023-08-07T07:09:20;4.72;;;1.20;;
71423;SDS011;59240;51.370;-0.486;2023-08-07T07:14:17;1.90;;;1.10;;
71423;SDS011;59240;51.370;-0.486;2023-08-07T07:19:14;2.53;;;1.30;;
71423;SDS011;59240;51.370;-0.486;2023-08-07T07:24:10;3.75;;;1.00;;
71423;SDS011;59240;51.370;-0.486;2023-08-07T07:29:07;2.70;;;1.17;;
71423;SDS011;59240;51.370;-0.486;2023-08-07T07:34:04;2.53;;;1.00;;
71423;SDS011;59240;51.370;-0.486;2023-08-07T07:39:01;2.90;;;1.20;;
71423;SDS011;59240;51.370;-0.486;2023-08-07T07:43:57;2.90;;;1.23;;
71423;SDS011;59240;51.370;-0.486;2023-08-07T07:48:54;1.63;;;0.63;;
71423;SDS011;59240;51.370;-0.486;2023-08-07T07:53:52;1.83;;;0.80;;
71423;SDS011;59240;51.370;-0.486;2023-08-07T07:59:09;2.55;;;0.80;;
71423;SDS011;59240;51.370;-0.486;2023-08-07T08:04:06;2.42;;;1.00;;
71423;SDS011;59240;51.370;-0.486;2023-08-07T08:09:03;2.67;;;1.15;;
71423;SDS011;59240;51.370;-0.486;2023-08-07T08:14:01;2.75;;;1.00;;
71423;SDS011;59240;51.370;-0.486;2023-08-07T08:18:57;1.45;;;0.77;;
71423;SDS011;59240;51.370;-0.486;2023-08-07T08:23:54;2.35;;;0.77;;
71423;SDS011;59240;51.370;-0.486;2023-08-07T08:28:51;1.73;;;0.70;;
71423;SDS011;59240;51.370;-0.486;2023-08-07T08:33:48;2.85;;;1.08;;
71423;SDS011;59240;51.370;-0.486;2023-08-07T08:38:45;3.78;;;1.10;;
71423;SDS011;59240;51.370;-0.486;2023-08-07T08:43:45;1.27;;;0.80;;
71423;SDS011;59240;51.370;-0.486;2023-08-07T08:53:46;1.23;;;1.13;;
71423;SDS011;59240;51.370;-0.486;2023-08-07T08:58:43;1.17;;;0.68;;
71423;SDS011;59240;51.370;-0.486;2023-08-07T09:03:40;0.77;;;0.68;;
71423;SDS011;59240;51.370;-0.486;2023-08-07T09:08:37;2.85;;;0.60;;
71423;SDS011;59240;51.370;-0.486;2023-08-07T09:13:39;1.45;;;0.60;;
71423;SDS011;59240;51.370;-0.486;2023-08-07T09:18:37;3.05;;;0.80;;
71423;SDS011;59240;51.370;-0.486;2023-08-07T09:23:34;2.00;;;0.70;;
71423;SDS011;59240;51.370;-0.486;2023-08-07T09:28:31;2.72;;;0.90;;
71423;SDS011;59240;51.370;-0.486;2023-08-07T09:33:29;3.13;;;0.63;;
71423;SDS011;59240;51.370;-0.486;2023-08-07T09:38:30;2.85;;;0.82;;
71423;SDS011;59240;51.370;-0.486;2023-08-07T09:43:36;2.85;;;1.20;;
71423;SDS011;59240;51.370;-0.486;2023-08-07T09:48:43;1.77;;;0.80;;
71423;SDS011;59240;51.370;-0.486;2023-08-07T09:53:40;2.17;;;0.73;;
71423;SDS011;59240;51.370;-0.486;2023-08-07T09:58:37;2.90;;;0.73;;
71423;SDS011;59240;51.370;-0.486;2023-08-07T10:03:34;2.00;;;0.80;;
71423;SDS011;59240;51.370;-0.486;2023-08-07T10:08:31;2.65;;;0.85;;
71423;SDS011;59240;51.370;-0.486;2023-08-07T10:13:30;2.05;;;0.60;;
71423;SDS011;59240;51.370;-0.486;2023-08-07T10:18:35;3.38;;;1.08;;
71423;SDS011;59240;51.370;-0.486;2023-08-07T10:23:34;1.35;;;0.73;;
71423;SDS011;59240;51.370;-0.486;2023-08-07T10:28:33;3.28;;;0.93;;
71423;SDS011;59240;51.370;-0.486;2023-08-07T10:33:36;2.45;;;1.00;;
71423;SDS011;59240;51.370;-0.486;2023-08-07T10:38:33;2.05;;;0.90;;
71423;SDS011;59240;51.370;-0.486;2023-08-07T10:43:36;1.77;;;1.05;;
71423;SDS011;59240;51.370;-0.486;2023-08-07T10:48:43;2.40;;;0.90;;
71423;SDS011;59240;51.370;-0.486;2023-08-07T10:53:45;1.20;;;0.98;;
71423;SDS011;59240;51.370;-0.486;2023-08-07T10:58:49;3.70;;;1.30;;
71423;SDS011;59240;51.370;-0.486;2023-08-07T11:03:51;2.67;;;1.00;;
71423;SDS011;59240;51.370;-0.486;2023-08-07T11:08:51;1.92;;;0.80;;
71423;SDS011;59240;51.370;-0.486;2023-08-07T11:13:51;1.80;;;1.00;;
71423;SDS011;59240;51.370;-0.486;2023-08-07T11:18:48;2.20;;;0.90;;
71423;SDS011;59240;51.370;-0.486;2023-08-07T11:23:46;4.63;;;1.20;;
71423;SDS011;59240;51.370;-0.486;2023-08-07T11:28:43;3.10;;;1.00;;
71423;SDS011;59240;51.370;-0.486;2023-08-07T11:33:40;1.88;;;0.90;;
71423;SDS011;59240;51.370;-0.486;2023-08-07T11:38:41;3.20;;;1.02;;
71423;SDS011;59240;51.370;-0.486;2023-08-07T11:43:40;1.52;;;0.85;;
71423;SDS011;59240;51.370;-0.486;2023-08-07T11:48:37;2.10;;;0.90;;
71423;SDS011;59240;51.370;-0.486;2023-08-07T11:53:36;1.17;;;0.77;;
71423;SDS011;59240;51.370;-0.486;2023-08-07T11:58:34;2.75;;;1.00;;
71423;SDS011;59240;51.370;-0.486;2023-08-07T12:08:37;3.63;;;0.90;;
71423;SDS011;59240;51.370;-0.486;2023-08-07T12:13:38;4.22;;;1.17;;
71423;SDS011;59240;51.370;-0.486;2023-08-07T12:18:37;3.15;;;0.90;;
71423;SDS011;59240;51.370;-0.486;2023-08-07T12:23:36;1.20;;;0.80;;
71423;SDS011;59240;51.370;-0.486;2023-08-07T12:28:34;3.03;;;1.10;;
71423;SDS011;59240;51.370;-0.486;2023-08-07T12:33:32;2.90;;;0.95;;
71423;SDS011;59240;51.370;-0.486;2023-08-07T12:38:29;3.95;;;1.25;;
71423;SDS011;59240;51.370;-0.486;2023-08-07T12:43:26;3.88;;;1.38;;
71423;SDS011;59240;51.370;-0.486;2023-08-07T12:48:24;1.58;;;0.75;;
71423;SDS011;59240;51.370;-0.486;2023-08-07T12:53:22;3.22;;;1.10;;
71423;SDS011;59240;51.370;-0.486;2023-08-07T12:58:19;3.50;;;1.00;;
71423;SDS011;59240;51.370;-0.486;2023-08-07T13:03:19;1.92;;;0.68;;
71423;SDS011;59240;51.370;-0.486;2023-08-07T13:08:17;2.50;;;0.82;;
71423;SDS011;59240;51.370;-0.486;2023-08-07T13:13:15;1.65;;;0.80;;
71423;SDS011;59240;51.370;-0.486;2023-08-07T13:18:11;1.73;;;0.80;;
71423;SDS011;59240;51.370;-0.486;2023-08-07T13:23:11;1.98;;;0.80;;
71423;SDS011;59240;51.370;-0.486;2023-08-07T13:28:08;1.98;;;0.80;;
71423;SDS011;59240;51.370;-0.486;2023-08-07T13:33:05;1.50;;;0.80;;
71423;SDS011;59240;51.370;-0.486;2023-08-07T13:38:02;2.45;;;0.80;;
71423;SDS011;59240;51.370;-0.486;2023-08-07T13:43:02;3.65;;;0.98;;
71423;SDS011;59240;51.370;-0.486;2023-08-07T13:48:04;2.10;;;0.82;;
71423;SDS011;59240;51.370;-0.486;2023-08-07T13:53:03;3.78;;;1.00;;
71423;SDS011;59240;51.370;-0.486;2023-08-07T13:58:10;2.72;;;0.77;;
71423;SDS011;59240;51.370;-0.486;2023-08-07T14:03:10;2.00;;;0.82;;
71423;SDS011;59240;51.370;-0.486;2023-08-07T14:08:09;1.20;;;0.70;;
71423;SDS011;59240;51.370;-0.486;2023-08-07T14:13:07;2.28;;;0.70;;
71423;SDS011;59240;51.370;-0.486;2023-08-07T14:18:06;3.40;;;1.13;;
71423;SDS011;59240;51.370;-0.486;2023-08-07T14:23:03;2.67;;;1.27;;
71423;SDS011;59240;51.370;-0.486;2023-08-07T14:28:19;1.27;;;0.77;;
71423;SDS011;59240;51.370;-0.486;2023-08-07T14:33:16;2.60;;;0.90;;
71423;SDS011;59240;51.370;-0.486;2023-08-07T14:38:14;2.63;;;0.90;;
71423;SDS011;59240;51.370;-0.486;2023-08-07T14:43:11;3.40;;;1.30;;
71423;SDS011;59240;51.370;-0.486;2023-08-07T14:48:07;2.40;;;1.10;;
71423;SDS011;59240;51.370;-0.486;2023-08-07T14:53:04;3.03;;;1.13;;
71423;SDS011;59240;51.370;-0.486;2023-08-07T14:58:01;2.38;;;0.98;;
71423;SDS011;59240;51.370;-0.486;2023-08-07T15:02:58;1.90;;;0.80;;
71423;SDS011;59240;51.370;-0.486;2023-08-07T15:07:56;2.00;;;1.00;;
71423;SDS011;59240;51.370;-0.486;2023-08-07T15:12:53;2.25;;;1.00;;
71423;SDS011;59240;51.370;-0.486;2023-08-07T15:17:50;3.55;;;1.20;;
71423;SDS011;59240;51.370;-0.486;2023-08-07T15:22:47;2.53;;;1.00;;
71423;SDS011;59240;51.370;-0.486;2023-08-07T15:27:44;3.95;;;1.10;;
71423;SDS011;59240;51.370;-0.486;2023-08-07T15:32:41;3.60;;;1.50;;
71423;SDS011;59240;51.370;-0.486;2023-08-07T15:37:38;3.15;;;1.52;;
71423;SDS011;59240;51.370;-0.486;2023-08-07T15:42:35;2.25;;;1.05;;
71423;SDS011;59240;51.370;-0.486;2023-08-07T15:47:32;2.88;;;1.25;;
71423;SDS011;59240;51.370;-0.486;2023-08-07T15:52:29;2.35;;;1.50;;
71423;SDS011;59240;51.370;-0.486;2023-08-07T15:57:25;4.45;;;1.13;;
71423;SDS011;59240;51.370;-0.486;2023-08-07T16:02:22;3.40;;;0.93;;
71423;SDS011;59240;51.370;-0.486;2023-08-07T16:07:22;1.50;;;0.80;;
71423;SDS011;59240;51.370;-0.486;2023-08-07T16:12:19;1.83;;;1.10;;
71423;SDS011;59240;51.370;-0.486;2023-08-07T16:17:16;1.75;;;0.95;;
71423;SDS011;59240;51.370;-0.486;2023-08-07T16:22:13;3.83;;;1.10;;
71423;SDS011;59240;51.370;-0.486;2023-08-07T16:27:09;2.28;;;1.10;;
71423;SDS011;59240;51.370;-0.486;2023-08-07T16:32:06;4.10;;;1.00;;
71423;SDS011;59240;51.370;-0.486;2023-08-07T16:37:05;2.53;;;0.88;;
71423;SDS011;59240;51.370;-0.486;2023-08-07T16:42:02;2.60;;;1.00;;
71423;SDS011;59240;51.370;-0.486;2023-08-07T16:46:59;1.67;;;1.50;;
71423;SDS011;59240;51.370;-0.486;2023-08-07T16:51:56;2.72;;;1.20;;
71423;SDS011;59240;51.370;-0.486;2023-08-07T16:56:55;3.00;;;1.17;;
71423;SDS011;59240;51.370;-0.486;2023-08-07T17:01:52;3.75;;;1.42;;
71423;SDS011;59240;51.370;-0.486;2023-08-07T17:06:49;5.60;;;1.20;;
71423;SDS011;59240;51.370;-0.486;2023-08-07T17:11:46;2.08;;;1.27;;
71423;SDS011;59240;51.370;-0.486;2023-08-07T17:16:42;3.90;;;1.20;;
71423;SDS011;59240;51.370;-0.486;2023-08-07T17:21:39;3.63;;;1.00;;
71423;SDS011;59240;51.370;-0.486;2023-08-07T17:26:36;4.28;;;1.23;;
71423;SDS011;59240;51.370;-0.486;2023-08-07T17:31:33;2.75;;;0.98;;
71423;SDS011;59240;51.370;-0.486;2023-08-07T17:36:30;3.00;;;1.30;;
71423;SDS011;59240;51.370;-0.486;2023-08-07T17:41:27;3.35;;;1.10;;
71423;SDS011;59240;51.370;-0.486;2023-08-07T17:46:23;3.95;;;1.30;;
71423;SDS011;59240;51.370;-0.486;2023-08-07T17:51:20;3.97;;;1.17;;
71423;SDS011;59240;51.370;-0.486;2023-08-07T17:56:17;3.95;;;1.35;;
71423;SDS011;59240;51.370;-0.486;2023-08-07T18:01:14;3.40;;;1.77;;
71423;SDS011;59240;51.370;-0.486;2023-08-07T18:06:11;2.38;;;1.42;;
71423;SDS011;59240;51.370;-0.486;2023-08-07T18:11:09;3.13;;;1.73;;
71423;SDS011;59240;51.370;-0.486;2023-08-07T18:16:06;5.03;;;1.90;;
71423;SDS011;59240;51.370;-0.486;2023-08-07T18:21:03;4.90;;;1.38;;
71423;SDS011;59240;51.370;-0.486;2023-08-07T18:26:00;2.92;;;1.17;;
71423;SDS011;59240;51.370;-0.486;2023-08-07T18:30:57;2.92;;;1.25;;
71423;SDS011;59240;51.370;-0.486;2023-08-07T18:35:55;5.38;;;2.30;;
71423;SDS011;59240;51.370;-0.486;2023-08-07T18:40:56;3.97;;;1.30;;
71423;SDS011;59240;51.370;-0.486;2023-08-07T18:45:53;6.47;;;1.58;;
71423;SDS011;59240;51.370;-0.486;2023-08-07T18:50:50;6.22;;;1.55;;
71423;SDS011;59240;51.370;-0.486;2023-08-07T18:55:47;6.40;;;1.60;;
71423;SDS011;59240;51.370;-0.486;2023-08-07T19:00:44;2.40;;;0.95;;
71423;SDS011;59240;51.370;-0.486;2023-08-07T19:05:40;2.28;;;1.15;;
71423;SDS011;59240;51.370;-0.486;2023-08-07T19:10:37;6.35;;;1.50;;
71423;SDS011;59240;51.370;-0.486;2023-08-07T19:15:34;2.95;;;1.48;;
71423;SDS011;59240;51.370;-0.486;2023-08-07T19:20:31;2.10;;;1.23;;
71423;SDS011;59240;51.370;-0.486;2023-08-07T19:25:28;4.75;;;1.73;;
71423;SDS011;59240;51.370;-0.486;2023-08-07T19:30:25;2.67;;;1.33;;
71423;SDS011;59240;51.370;-0.486;2023-08-07T19:35:23;3.00;;;1.30;;
71423;SDS011;59240;51.370;-0.486;2023-08-07T19:40:20;4.13;;;1.80;;
71423;SDS011;59240;51.370;-0.486;2023-08-07T19:45:20;3.85;;;1.80;;
71423;SDS011;59240;51.370;-0.486;2023-08-07T19:50:17;5.18;;;1.88;;
71423;SDS011;59240;51.370;-0.486;2023-08-07T19:55:14;3.67;;;1.67;;
71423;SDS011;59240;51.370;-0.486;2023-08-07T20:00:13;4.63;;;1.65;;
71423;SDS011;59240;51.370;-0.486;2023-08-07T20:05:10;1.58;;;0.80;;
71423;SDS011;59240;51.370;-0.486;2023-08-07T20:10:07;2.90;;;0.85;;
71423;SDS011;59240;51.370;-0.486;2023-08-07T20:15:06;3.42;;;1.30;;
71423;SDS011;59240;51.370;-0.486;2023-08-07T20:20:04;4.32;;;1.30;;
71423;SDS011;59240;51.370;-0.486;2023-08-07T20:25:01;2.38;;;1.50;;
71423;SDS011;59240;51.370;-0.486;2023-08-07T20:29:58;3.92;;;1.50;;
71423;SDS011;59240;51.370;-0.486;2023-08-07T20:34:55;2.67;;;1.08;;
71423;SDS011;59240;51.370;-0.486;2023-08-07T20:39:55;1.95;;;0.95;;
71423;SDS011;59240;51.370;-0.486;2023-08-07T20:44:52;1.83;;;0.93;;
71423;SDS011;59240;51.370;-0.486;2023-08-07T20:49:49;2.90;;;1.23;;
71423;SDS011;59240;51.370;-0.486;2023-08-07T20:54:45;3.72;;;1.20;;
71423;SDS011;59240;51.370;-0.486;2023-08-07T20:59:42;3.03;;;1.55;;
71423;SDS011;59240;51.370;-0.486;2023-08-07T21:04:39;3.28;;;1.13;;
71423;SDS011;59240;51.370;-0.486;2023-08-07T21:09:37;1.90;;;0.80;;
71423;SDS011;59240;51.370;-0.486;2023-08-07T21:14:34;2.55;;;1.15;;
71423;SDS011;59240;51.370;-0.486;2023-08-07T21:19:31;1.75;;;1.08;;
71423;SDS011;59240;51.370;-0.486;2023-08-07T21:24:28;2.75;;;1.13;;
71423;SDS011;59240;51.370;-0.486;2023-08-07T21:29:25;2.83;;;1.13;;
71423;SDS011;59240;51.370;-0.486;2023-08-07T21:34:22;2.60;;;0.90;;
71423;SDS011;59240;51.370;-0.486;2023-08-07T21:39:19;2.83;;;1.10;;
71423;SDS011;59240;51.370;-0.486;2023-08-07T21:44:18;2.88;;;1.42;;
71423;SDS011;59240;51.370;-0.486;2023-08-07T21:49:15;1.65;;;1.10;;
71423;SDS011;59240;51.370;-0.486;2023-08-07T21:54:16;2.60;;;1.00;;
71423;SDS011;59240;51.370;-0.486;2023-08-07T21:59:13;1.75;;;1.00;;
71423;SDS011;59240;51.370;-0.486;2023-08-07T22:04:10;3.97;;;1.17;;
71423;SDS011;59240;51.370;-0.486;2023-08-07T22:09:08;3.20;;;1.13;;
71423;SDS011;59240;51.370;-0.486;2023-08-07T22:14:05;4.30;;;1.58;;
71423;SDS011;59240;51.370;-0.486;2023-08-07T22:19:10;2.22;;;1.27;;
71423;SDS011;59240;51.370;-0.486;2023-08-07T22:24:07;3.20;;;1.30;;
71423;SDS011;59240;51.370;-0.486;2023-08-07T22:29:22;4.10;;;1.42;;
71423;SDS011;59240;51.370;-0.486;2023-08-07T22:34:18;3.60;;;1.70;;
71423;SDS011;59240;51.370;-0.486;2023-08-07T22:39:16;2.55;;;1.60;;
71423;SDS011;59240;51.370;-0.486;2023-08-07T22:44:12;5.80;;;1.70;;
71423;SDS011;59240;51.370;-0.486;2023-08-07T22:49:10;6.35;;;1.10;;
71423;SDS011;59240;51.370;-0.486;2023-08-07T22:54:06;2.65;;;1.13;;
71423;SDS011;59240;51.370;-0.486;2023-08-07T22:59:03;1.42;;;1.10;;
71423;SDS011;59240;51.370;-0.486;2023-08-07T23:04:00;2.13;;;1.20;;
71423;SDS011;59240;51.370;-0.486;2023-08-07T23:08:57;4.10;;;1.33;;
71423;SDS011;59240;51.370;-0.486;2023-08-07T23:13:56;2.97;;;1.00;;
71423;SDS011;59240;51.370;-0.486;2023-08-07T23:18:53;2.35;;;1.23;;
71423;SDS011;59240;51.370;-0.486;2023-08-07T23:23:51;4.10;;;1.20;;
71423;SDS011;59240;51.370;-0.486;2023-08-07T23:28:48;1.75;;;0.82;;
71423;SDS011;59240;51.370;-0.486;2023-08-07T23:33:45;3.22;;;1.00;;
71423;SDS011;59240;51.370;-0.486;2023-08-07T23:38:45;1.25;;;1.05;;
71423;SDS011;59240;51.370;-0.486;2023-08-07T23:43:45;2.03;;;0.85;;
71423;SDS011;59240;51.370;-0.486;2023-08-07T23:48:42;1.40;;;0.93;;
71423;SDS011;59240;51.370;-0.486;2023-08-07T23:53:39;1.45;;;0.90;;
71423;SDS011;59240;51.370;-0.486;2023-08-07T23:58:36;2.05;;;1.10;;
